Decoded Metar for KAXN (ALEXANDRIA in MN, USA) (IATA:AXN) | Meteo·Mobile Aviation Weather
aviador You're here:

KAXN Decoded Metar

ALEXANDRIA in MN, USA
Report Time2018-11-16 16:53:00
UTC Time2018-11-16 17:43:42
Flight Rules vfr VFR
Wind350° at 08 kt
W.Decomp.*RWY 31: 6.5 kt HW 4.7 kt RCW
RWY 04: 4.7 kt HW 6.5 kt LCW
W.Rank350° ranks 17
Current wind is below 350° avg. (8.8)
Visibility9999 m
Phenomena:N/A
Clouds:Overcast 090 Hf
Expected CloudBase > 2,400 ft AGL from Temp-Dew spread
Ceiling9,000 ft
Temp-3°C (ISA -15)
Dew Point-9°C (64% RH)
AAT-8.8°C
QNH1017 hPa
Density Alt-528 ft
Elevation1,421 ft
Report Wrong Elevation
Raw Report
KAXN 161653Z AUTO 35008KT 10SM OVC090 M03/M09 A3004 RMK AO2 SLP194
T10281089=

Extra information for KAXN:More info

Metar Taf Metar & Taf Last 4 Metars F.Rules Stats Wind Profile Meteogram Temp Stats Airport Information Weather charts Add Link Nearby VenuesMetar ALERT Operation Metar Decoded Social comments

AIRNAV info for KAXN